Arapaho, OK (73620)

7:53 AM CDT on September 02, 2014 (GMT -0500)
Custer City | Change Station
CLOSE
Current Station
Personal Weather Station
Location: Custer City, OK
Elevation: 1775 ft
Nearby Weather Stations

Elev 1775 ft 35.67 °N, 98.88 °W | Updated 6 seconds ago

Clear
Clear
72.3 °F
Feels Like 71 °F
N
0.9
Wind Variable Wind from East
Gusts 10.0 mph

Today
High -- | Low -- °F
--% Chance of Precip.
Yesterday
High -- | Low -- °F
Precip. -- in
7:08 AM 8:01 PM
Waxing Crescent, 51% visible
Pressure 29.84 in
Visibility 10.0 miles
Clouds Clear
Heat Index 71 °F
Dew Point 68 °F
Humidity 87%
Rainfall 0.00 in
Snow Depth Not available.
UV 0 out of 12
Pollen 10.50 out of 12
Air Quality Not available.
Flu Activity Not available.
METAR KCSM 021153Z AUTO 22007KT 10SM CLR 27/17 A2993 RMK AO2 SLP103 T02670172 10289 20250 53025 $

More Conditions Fewer Conditions

Pressure 29.84 in
Visibility 10.0 miles
Clouds Clear
Heat Index 71 °F
Dew Point 68 °F
Humidity 87%
Rainfall 0.00 in
Snow Depth Not available.
UV 0 out of 12
Pollen 10.50 out of 12
Air Quality Not available.
Flu Activity Not available.
METAR KCSM 021153Z AUTO 22007KT 10SM CLR 27/17 A2993 RMK AO2 SLP103 T02670172 10289 20250 53025 $

More Conditions Fewer Conditions

10-Day Weather Forecast

Almanac

Astronomy

Sep. 02, 2014 Rise Set
Actual Time 7:08 AM CDT 8:01 PM CDT
Civil Twilight 6:42 AM CDT 8:27 PM CDT
Nautical Twilight 6:11 AM CDT 8:58 PM CDT
Astronomical Twilight 5:40 AM CDT 9:29 PM CDT
Moon 2:40 PM CDT 12:19 AM CDT
Length of Visible Light 13h 44m
Length of Day
12h 52m
Tomorrow will be 2m 9s shorter.
Waxing Crescent, 51% of the Moon is Illuminated
Today
Waxing Crescent
Sep 8
Full
Sep 15
Last Quarter
Sep 24
New
Oct 1
First Quarter

Today's Extremes

State Highs State Lows

Community

WunderPhotos

Upload Photos

1,749,642 photos uploaded!

Nearby

Snow Depth

Station Depth Elevation
No new snow has been reported.

Earthquake Activity

City Distance Mag. Time & Date
Helena, Oklahoma 71 miles 3.2 3:05 AM CDT
2014-09-02
Medford, Oklahoma 97 miles 3.3 11:58 PM CDT
2014-09-01
Perry, Oklahoma 97 miles 3.1 6:46 AM CDT
2014-09-01
Jones, Oklahoma 94 miles 3.1 1:49 PM CDT
2014-08-31
Minimum magnitude displayed is 2.5.

Coastal Water Temperatures

Place Temperature
No Stations Reporting

Nearby Weather Stations